Terminal Aerodrome Forecast
Issued by NWS Sioux Falls, SD

Home | Current Version | Previous Version | Text Only | Print | Product List | Glossary On
Versions: 1 2 3 4 5 6 7 8 9 10 11 12 13 14 15 16 17 18 19 20 21
000
FTUS43 KFSD 220345 AAA
TAFFSD
TAF AMD
KFSD 220345Z 2204/2224 30005KT P6SM OVC011
     FM220800 31006KT 2SM BR OVC005
     FM221600 31011KT P6SM OVC008
     FM222300 31009KT P6SM OVC010=

USA.gov is the U.S. government's official web portal to all federal, state and local government web resources and services.